createdAt,value
2023-02-13T00:00:55.797Z,87.28
2023-02-13T00:03:25.168Z,87.54
2023-02-13T00:05:52.930Z,87.36
2023-02-13T00:08:20.681Z,87.11
2023-02-13T00:10:48.603Z,87.47
2023-02-13T00:13:16.391Z,87.94
2023-02-13T00:15:44.182Z,87.73
2023-02-13T00:18:12.344Z,87.20
2023-02-13T00:20:41.469Z,87.50
2023-02-13T00:23:09.224Z,87.35
2023-02-13T00:25:36.958Z,87.49
2023-02-13T00:28:04.751Z,87.40
2023-02-13T00:30:32.462Z,87.91
2023-02-13T00:33:00.224Z,88.11
2023-02-13T00:35:27.989Z,87.82
2023-02-13T00:37:57.072Z,87.72
2023-02-13T00:40:25.069Z,87.18
2023-02-13T00:42:52.806Z,87.57
2023-02-13T00:45:20.568Z,87.47
2023-02-13T00:47:48.309Z,87.33
2023-02-13T00:50:16.148Z,87.26
2023-02-13T00:52:43.913Z,87.65
2023-02-13T00:55:13.005Z,87.71
2023-02-13T00:57:40.684Z,87.64
2023-02-13T01:00:10.644Z,87.50
2023-02-13T01:02:38.520Z,88.56
2023-02-13T01:05:06.761Z,87.98
2023-02-13T01:07:34.491Z,87.46
2023-02-13T01:10:02.315Z,87.60
2023-02-13T01:12:31.415Z,87.97
2023-02-13T01:14:59.287Z,87.87
2023-02-13T01:17:27.050Z,87.63
2023-02-13T01:19:55.100Z,87.59
2023-02-13T01:22:22.839Z,88.01
2023-02-13T01:24:50.768Z,88.33
2023-02-13T01:27:18.556Z,87.81
2023-02-13T01:29:47.656Z,88.51
2023-02-13T01:32:15.667Z,88.04
2023-02-13T01:34:43.417Z,88.21
2023-02-13T01:37:11.113Z,88.30
2023-02-13T01:39:38.917Z,87.53
2023-02-13T01:42:07.556Z,88.48
2023-02-13T01:44:53.556Z,87.71
2023-02-13T01:47:27.403Z,88.59
2023-02-13T01:50:04.801Z,87.73
2023-02-13T01:52:33.070Z,88.38
2023-02-13T01:55:01.067Z,89.03
2023-02-13T01:57:32.443Z,88.20
2023-02-13T02:00:04.657Z,88.37
2023-02-13T02:02:35.911Z,88.12
2023-02-13T02:05:04.508Z,88.01
2023-02-13T02:07:34.079Z,88.56
2023-02-13T02:10:06.254Z,87.63
2023-02-13T02:12:40.064Z,88.89
2023-02-13T02:15:09.553Z,88.85
2023-02-13T02:17:37.397Z,88.68
2023-02-13T02:20:16.081Z,87.78
2023-02-13T02:23:07.766Z,88.28
2023-02-13T02:26:03.369Z,88.33
2023-02-13T02:29:03.423Z,88.08
2023-02-13T02:32:08.452Z,88.11
2023-02-13T02:34:50.070Z,88.48
2023-02-13T02:37:33.317Z,88.18
2023-02-13T02:40:13.303Z,88.02
2023-02-13T02:42:49.006Z,88.40
2023-02-13T02:45:26.574Z,88.38
2023-02-13T02:48:18.132Z,88.36
2023-02-13T02:50:52.629Z,88.82
2023-02-13T02:53:32.725Z,88.14
2023-02-13T02:56:08.211Z,89.06
2023-02-13T02:59:08.785Z,89.12
2023-02-13T03:01:56.305Z,88.86
2023-02-13T03:04:45.250Z,89.11
2023-02-13T03:07:17.215Z,88.76
2023-02-13T03:10:06.108Z,88.96
2023-02-13T03:12:58.207Z,88.52
2023-02-13T03:15:28.304Z,89.01
2023-02-13T03:18:14.907Z,88.55
2023-02-13T03:21:08.970Z,88.31
2023-02-13T03:23:47.316Z,89.54
2023-02-13T03:26:45.700Z,88.95
2023-02-13T03:29:37.810Z,88.85
2023-02-13T03:32:13.435Z,88.80
2023-02-13T03:35:06.945Z,89.58
2023-02-13T03:37:56.683Z,88.89
2023-02-13T03:40:31.566Z,89.42
2023-02-13T03:43:09.457Z,89.41
2023-02-13T03:45:57.249Z,89.28
2023-02-13T03:48:46.154Z,89.34
2023-02-13T03:51:18.375Z,89.77
2023-02-13T03:53:51.970Z,89.98
2023-02-13T03:56:39.938Z,89.41
2023-02-13T03:59:18.726Z,90.01
2023-02-13T04:01:55.256Z,89.61
2023-02-13T04:04:29.844Z,90.73
2023-02-13T04:07:01.240Z,90.42
2023-02-13T04:09:32.668Z,90.21
2023-02-13T04:12:07.510Z,90.70
2023-02-13T04:14:39.447Z,90.91
2023-02-13T04:17:10.884Z,90.53
2023-02-13T04:19:39.209Z,91.75
2023-02-13T04:22:06.974Z,91.44
2023-02-13T04:24:36.060Z,91.15
2023-02-13T04:27:03.887Z,91.38
2023-02-13T04:29:31.650Z,91.29
2023-02-13T04:31:59.426Z,91.84
2023-02-13T04:34:27.262Z,91.63
2023-02-13T04:36:55.024Z,91.98
2023-02-13T04:39:22.717Z,91.75
2023-02-13T04:41:51.788Z,92.09
2023-02-13T04:44:19.524Z,91.49
2023-02-13T04:46:47.241Z,91.75
2023-02-13T04:49:15.109Z,92.14
2023-02-13T04:51:42.895Z,91.76
2023-02-13T04:54:13.786Z,92.33
2023-02-13T04:56:41.522Z,92.37
2023-02-13T04:59:10.641Z,92.20
2023-02-13T05:01:38.416Z,92.53
2023-02-13T05:04:06.302Z,92.27
2023-02-13T05:06:33.954Z,92.14
2023-02-13T05:09:02.861Z,92.17
2023-02-13T05:11:30.658Z,92.20
2023-02-13T05:13:58.391Z,92.43
2023-02-13T05:16:27.519Z,92.58
2023-02-13T05:18:55.282Z,91.90
2023-02-13T05:21:36.911Z,91.53
2023-02-13T05:24:04.829Z,92.82
2023-02-13T05:26:32.684Z,93.37
2023-02-13T05:29:17.666Z,92.83
2023-02-13T05:31:46.946Z,92.74
2023-02-13T05:34:14.802Z,92.83
2023-02-13T05:36:42.608Z,92.89
2023-02-13T05:39:10.521Z,92.51
2023-02-13T05:41:38.238Z,92.65
2023-02-13T05:44:06.122Z,92.75
2023-02-13T05:46:33.936Z,93.03
2023-02-13T05:49:04.846Z,92.74
2023-02-13T05:51:33.034Z,93.29
2023-02-13T05:54:00.806Z,93.56
2023-02-13T05:56:28.776Z,93.75
2023-02-13T05:58:57.543Z,92.96
2023-02-13T06:01:25.730Z,93.25
2023-02-13T06:03:53.555Z,92.81
2023-02-13T06:06:23.397Z,93.90
2023-02-13T06:08:51.140Z,92.72
2023-02-13T06:11:19.144Z,94.15
2023-02-13T06:13:46.946Z,93.30
2023-02-13T06:16:15.202Z,93.25
2023-02-13T06:18:43.044Z,94.02
2023-02-13T06:21:10.848Z,93.68
2023-02-13T06:23:39.924Z,93.12
2023-02-13T06:26:09.701Z,93.89
2023-02-13T06:28:37.517Z,93.51
2023-02-13T06:31:05.732Z,94.25
2023-02-13T06:33:33.562Z,93.36
2023-02-13T06:36:01.348Z,93.67
2023-02-13T06:38:29.139Z,94.56
2023-02-13T06:41:01.937Z,93.94
2023-02-13T06:43:29.711Z,94.45
2023-02-13T06:45:57.472Z,93.84
2023-02-13T06:48:25.355Z,93.71
2023-02-13T06:50:53.119Z,93.79
2023-02-13T06:53:25.076Z,94.71
2023-02-13T06:55:54.019Z,94.18
2023-02-13T06:58:24.763Z,94.45
2023-02-13T07:00:53.356Z,93.94
2023-02-13T07:03:21.172Z,94.39
2023-02-13T07:05:51.978Z,93.46
2023-02-13T07:08:19.902Z,93.57
2023-02-13T07:10:47.657Z,94.21
2023-02-13T07:13:15.427Z,93.82
2023-02-13T07:15:44.861Z,94.15
2023-02-13T07:18:12.605Z,93.61
2023-02-13T07:20:40.344Z,93.61
2023-02-13T07:23:08.128Z,94.28
2023-02-13T07:25:36.005Z,93.34
2023-02-13T07:28:04.658Z,93.78
2023-02-13T07:30:32.841Z,93.72
2023-02-13T07:33:03.213Z,94.42
2023-02-13T07:35:36.835Z,94.25
2023-02-13T07:38:05.011Z,93.97
2023-02-13T07:40:32.737Z,94.29
2023-02-13T07:43:02.002Z,94.22
2023-02-13T07:45:29.816Z,94.40
2023-02-13T07:47:57.811Z,94.51
2023-02-13T07:50:27.538Z,93.73
2023-02-13T07:52:55.796Z,95.58
2023-02-13T07:55:23.918Z,94.48
2023-02-13T07:57:52.197Z,94.72
2023-02-13T08:00:21.265Z,94.99
2023-02-13T08:02:49.499Z,95.82
2023-02-13T08:05:17.548Z,95.56
2023-02-13T08:07:46.628Z,95.87
2023-02-13T08:10:33.188Z,95.20
2023-02-13T08:13:01.458Z,95.67
2023-02-13T08:15:29.204Z,96.55
2023-02-13T08:17:57.090Z,96.75
2023-02-13T08:20:25.077Z,96.40
2023-02-13T08:22:54.173Z,97.39
2023-02-13T08:25:21.950Z,96.72
2023-02-13T08:27:49.662Z,97.03
2023-02-13T08:30:17.737Z,96.97
2023-02-13T08:32:54.429Z,97.18
2023-02-13T08:35:22.789Z,98.56
2023-02-13T08:37:50.600Z,98.38
2023-02-13T08:40:19.954Z,98.29
2023-02-13T08:42:47.708Z,98.77
2023-02-13T08:45:15.587Z,99.32
2023-02-13T08:47:43.332Z,98.34
2023-02-13T08:50:11.824Z,99.42
2023-02-13T08:52:39.598Z,99.57
2023-02-13T08:55:07.693Z,99.46
2023-02-13T08:57:36.820Z,98.61
2023-02-13T09:00:05.996Z,98.40
2023-02-13T09:02:33.782Z,99.13
2023-02-13T09:05:01.542Z,98.90
2023-02-13T09:07:29.391Z,98.96
2023-02-13T09:09:57.077Z,98.89
2023-02-13T09:12:24.880Z,97.95
2023-02-13T09:14:54.016Z,98.46
2023-02-13T09:17:21.738Z,98.72
2023-02-13T09:19:49.466Z,98.22
2023-02-13T09:22:17.624Z,97.47
2023-02-13T09:24:45.395Z,97.55
2023-02-13T09:27:13.181Z,97.65
2023-02-13T09:29:40.970Z,97.97
2023-02-13T09:32:10.224Z,97.48
2023-02-13T09:34:38.010Z,97.18
2023-02-13T09:37:05.758Z,97.03
2023-02-13T09:39:33.509Z,97.49
2023-02-13T09:42:02.336Z,96.63
2023-02-13T09:44:35.409Z,96.52
2023-02-13T09:47:07.482Z,96.85
2023-02-13T09:49:39.977Z,96.60
2023-02-13T09:52:11.207Z,96.33
2023-02-13T09:54:39.193Z,96.65
2023-02-13T09:57:16.543Z,96.40
2023-02-13T09:59:57.099Z,95.89
2023-02-13T10:02:45.981Z,95.90
2023-02-13T10:05:30.331Z,95.27
2023-02-13T10:08:07.348Z,95.05
2023-02-13T10:10:46.201Z,93.71
2023-02-13T10:13:29.952Z,93.69
2023-02-13T10:16:05.486Z,93.60
2023-02-13T10:18:44.057Z,92.98
2023-02-13T10:21:15.101Z,92.96
2023-02-13T10:23:47.293Z,93.22
2023-02-13T10:26:21.019Z,92.52
2023-02-13T10:29:14.306Z,92.09
2023-02-13T10:31:45.073Z,92.08
2023-02-13T10:34:16.574Z,91.40
2023-02-13T10:36:48.055Z,90.76
2023-02-13T10:39:24.780Z,90.54
2023-02-13T10:41:57.987Z,90.59
2023-02-13T10:44:44.258Z,90.18
2023-02-13T10:47:22.857Z,89.93
2023-02-13T10:50:01.332Z,88.86
2023-02-13T10:52:40.456Z,88.35
2023-02-13T10:55:24.218Z,88.43
2023-02-13T10:58:07.735Z,87.84
2023-02-13T11:00:40.197Z,87.73
2023-02-13T11:03:18.820Z,87.29
2023-02-13T11:05:46.689Z,86.53
2023-02-13T11:08:19.857Z,86.63
2023-02-13T11:10:47.890Z,85.56
2023-02-13T11:13:18.901Z,85.67
2023-02-13T11:16:04.340Z,84.77
2023-02-13T11:18:35.522Z,84.28
2023-02-13T11:21:09.016Z,84.23
2023-02-13T11:23:43.483Z,84.67
2023-02-13T11:26:15.293Z,84.54
2023-02-13T11:28:51.095Z,83.69
2023-02-13T11:31:30.305Z,83.38
2023-02-13T11:33:59.414Z,82.98
2023-02-13T11:36:30.234Z,82.54
2023-02-13T11:39:06.227Z,82.09
2023-02-13T11:41:41.772Z,82.00
2023-02-13T11:44:23.014Z,81.86
2023-02-13T11:46:52.960Z,81.43
2023-02-13T11:49:23.291Z,80.61
2023-02-13T11:51:53.556Z,80.89
2023-02-13T11:54:34.327Z,79.30
2023-02-13T11:57:05.848Z,79.31
2023-02-13T11:59:41.603Z,80.07
2023-02-13T12:02:19.285Z,79.48
2023-02-13T12:04:48.648Z,79.45
2023-02-13T12:07:21.234Z,78.61
2023-02-13T12:09:55.135Z,78.24
2023-02-13T12:12:30.088Z,78.34
2023-02-13T12:14:59.480Z,78.12
2023-02-13T12:17:32.487Z,78.18
2023-02-13T12:20:01.191Z,78.24
2023-02-13T12:22:39.275Z,77.76
2023-02-13T12:25:29.300Z,76.82
2023-02-13T12:28:11.895Z,77.02
2023-02-13T12:31:20.577Z,76.45
2023-02-13T12:34:23.919Z,76.85
2023-02-13T12:37:09.797Z,76.55
2023-02-13T12:39:42.340Z,75.94
2023-02-13T12:42:23.307Z,75.94
2023-02-13T12:45:16.005Z,74.58
2023-02-13T12:48:02.799Z,75.12
2023-02-13T12:50:45.430Z,74.30
2023-02-13T12:53:26.077Z,74.97
2023-02-13T12:56:12.896Z,74.49
2023-02-13T12:58:56.725Z,74.16
2023-02-13T13:01:44.428Z,74.07
2023-02-13T13:04:21.959Z,73.40
2023-02-13T13:07:01.284Z,73.73
2023-02-13T13:09:53.099Z,72.96
2023-02-13T13:12:33.532Z,73.13
2023-02-13T13:15:09.070Z,72.75
2023-02-13T13:17:51.020Z,72.76
2023-02-13T13:20:38.772Z,72.74
2023-02-13T13:23:12.434Z,72.74
2023-02-13T13:25:49.516Z,73.04
2023-02-13T13:28:20.541Z,73.15
2023-02-13T13:30:50.394Z,72.53
2023-02-13T13:33:20.859Z,72.07
2023-02-13T13:35:59.646Z,71.23
2023-02-13T13:38:39.728Z,71.89
2023-02-13T13:41:16.119Z,72.18
2023-02-13T13:43:59.263Z,71.54
2023-02-13T13:46:38.704Z,71.71
2023-02-13T13:49:25.866Z,72.37
2023-02-13T13:51:53.629Z,72.67
2023-02-13T13:54:35.486Z,72.99
2023-02-13T13:57:13.625Z,72.14
2023-02-13T14:00:01.995Z,72.12
2023-02-13T14:02:43.591Z,71.91
2023-02-13T14:05:24.299Z,72.11
2023-02-13T14:07:54.020Z,72.47
2023-02-13T14:11:09.510Z,71.78
2023-02-13T14:13:39.526Z,72.28
2023-02-13T14:16:12.149Z,72.69
2023-02-13T14:18:47.883Z,72.68
2023-02-13T14:21:24.726Z,72.57
2023-02-13T14:23:53.844Z,73.12
2023-02-13T14:26:36.615Z,72.94
2023-02-13T14:29:22.470Z,72.88
2023-02-13T14:32:19.186Z,72.67
2023-02-13T14:34:56.996Z,72.90
2023-02-13T14:37:34.550Z,73.15
2023-02-13T14:40:55.867Z,72.70
2023-02-13T14:43:40.523Z,72.91
2023-02-13T14:46:30.923Z,72.84
2023-02-13T14:49:03.120Z,72.48
2023-02-13T14:51:37.172Z,73.06
2023-02-13T14:54:16.629Z,73.26
2023-02-13T14:56:47.554Z,73.11
2023-02-13T14:59:18.389Z,73.07
2023-02-13T15:01:53.363Z,72.97
2023-02-13T15:04:28.282Z,72.99
2023-02-13T15:07:01.302Z,73.36
2023-02-13T15:09:35.740Z,73.32
2023-02-13T15:12:03.542Z,73.44
2023-02-13T15:14:36.190Z,73.68
2023-02-13T15:17:10.213Z,73.33
2023-02-13T15:19:40.595Z,73.33
2023-02-13T15:22:20.463Z,73.21
2023-02-13T15:24:49.749Z,73.89
2023-02-13T15:27:21.954Z,73.72
2023-02-13T15:29:59.058Z,73.86
2023-02-13T15:32:34.392Z,73.62
2023-02-13T15:35:02.202Z,73.47
2023-02-13T15:37:32.001Z,74.00
2023-02-13T15:40:17.166Z,74.10
2023-02-13T15:42:45.074Z,73.86
2023-02-13T15:45:17.564Z,74.33
2023-02-13T15:47:46.545Z,74.13
2023-02-13T15:50:23.609Z,73.74
2023-02-13T15:52:53.205Z,74.05
2023-02-13T15:55:23.945Z,74.14
2023-02-13T15:57:54.747Z,73.67
2023-02-13T16:00:26.421Z,73.85
2023-02-13T16:02:55.843Z,74.01
2023-02-13T16:05:38.974Z,73.69
2023-02-13T16:08:28.200Z,73.77
2023-02-13T16:11:18.139Z,74.08
2023-02-13T16:14:06.029Z,74.18
2023-02-13T16:16:37.698Z,73.86
2023-02-13T16:19:06.007Z,73.86
2023-02-13T16:21:35.925Z,74.40
2023-02-13T16:24:08.447Z,73.94
2023-02-13T16:26:39.225Z,74.39
2023-02-13T16:29:11.503Z,74.03
2023-02-13T16:31:40.878Z,74.39
2023-02-13T16:34:16.020Z,74.71
2023-02-13T16:36:43.946Z,74.03
2023-02-13T16:39:21.667Z,74.13
2023-02-13T16:41:51.413Z,74.67
2023-02-13T16:44:31.255Z,74.86
2023-02-13T16:47:01.512Z,74.93
2023-02-13T16:49:31.761Z,74.88
2023-02-13T16:52:11.696Z,74.71
2023-02-13T16:54:49.939Z,74.95
2023-02-13T16:57:24.555Z,75.47
2023-02-13T17:00:03.983Z,75.70
2023-02-13T17:02:33.733Z,75.93
2023-02-13T17:05:17.680Z,76.03
2023-02-13T17:07:48.269Z,76.49
2023-02-13T17:10:22.478Z,76.67
2023-02-13T17:12:51.827Z,76.77
2023-02-13T17:15:22.652Z,76.96
2023-02-13T17:17:51.654Z,77.33
2023-02-13T17:20:21.782Z,77.31
2023-02-13T17:22:51.356Z,77.40
2023-02-13T17:25:23.622Z,77.81
2023-02-13T17:27:53.049Z,77.79
2023-02-13T17:30:22.925Z,78.02
2023-02-13T17:32:54.931Z,78.21
2023-02-13T17:35:22.698Z,77.89
2023-02-13T17:37:50.448Z,78.44
2023-02-13T17:40:20.123Z,78.62
2023-02-13T17:42:52.693Z,78.68
2023-02-13T17:45:23.593Z,78.79
2023-02-13T17:47:51.338Z,78.98
2023-02-13T17:50:19.573Z,78.95
2023-02-13T17:52:49.111Z,78.96
2023-02-13T17:55:18.596Z,79.35
2023-02-13T17:57:46.427Z,79.54
2023-02-13T18:00:16.242Z,79.69
2023-02-13T18:02:44.246Z,79.66
2023-02-13T18:05:12.535Z,79.80
2023-02-13T18:07:41.535Z,80.02
2023-02-13T18:10:13.231Z,80.40
2023-02-13T18:12:41.562Z,80.57
2023-02-13T18:15:10.245Z,80.82
2023-02-13T18:17:39.668Z,80.81
2023-02-13T18:20:09.674Z,81.14
2023-02-13T18:22:37.635Z,81.41
2023-02-13T18:25:06.710Z,81.62
2023-02-13T18:27:34.599Z,81.82
2023-02-13T18:30:02.553Z,81.91
2023-02-13T18:32:30.409Z,82.06
2023-02-13T18:34:59.650Z,82.11
2023-02-13T18:37:29.436Z,82.44
2023-02-13T18:39:58.003Z,82.99
2023-02-13T18:42:25.951Z,82.86
2023-02-13T18:44:53.776Z,83.30
2023-02-13T18:47:21.558Z,82.96
2023-02-13T18:49:49.334Z,83.21
2023-02-13T18:52:18.506Z,83.50
2023-02-13T18:54:46.289Z,83.35
2023-02-13T18:57:14.229Z,83.67
2023-02-13T18:59:42.008Z,83.48
2023-02-13T19:02:10.997Z,83.56
2023-02-13T19:04:39.192Z,83.49
2023-02-13T19:07:06.948Z,83.87
2023-02-13T19:09:40.253Z,84.30
2023-02-13T19:12:09.077Z,84.02
2023-02-13T19:14:37.174Z,84.21
2023-02-13T19:17:04.962Z,84.65
2023-02-13T19:19:32.746Z,84.22
2023-02-13T19:22:00.500Z,84.81
2023-02-13T19:24:28.241Z,84.34
2023-02-13T19:26:57.409Z,84.28
2023-02-13T19:29:25.308Z,84.24
2023-02-13T19:31:53.447Z,84.32
2023-02-13T19:34:21.194Z,84.39
2023-02-13T19:36:48.931Z,84.37
2023-02-13T19:39:16.869Z,84.85
2023-02-13T19:41:44.673Z,84.41
2023-02-13T19:44:14.081Z,84.53
2023-02-13T19:46:41.939Z,84.57
2023-02-13T19:49:10.713Z,84.87
2023-02-13T19:51:38.642Z,85.03
2023-02-13T19:54:08.405Z,84.87
2023-02-13T19:56:37.862Z,85.90
2023-02-13T19:59:06.848Z,86.05
2023-02-13T20:01:36.037Z,85.88
2023-02-13T20:04:03.825Z,86.47
2023-02-13T20:06:34.970Z,86.50
2023-02-13T20:09:07.305Z,86.26
2023-02-13T20:11:35.115Z,86.43
2023-02-13T20:14:04.826Z,86.10
2023-02-13T20:16:35.494Z,86.11
2023-02-13T20:19:07.537Z,85.89
2023-02-13T20:21:35.608Z,86.33
2023-02-13T20:24:03.936Z,86.58
2023-02-13T20:26:32.134Z,86.50
2023-02-13T20:28:59.979Z,86.74
2023-02-13T20:31:29.926Z,85.96
2023-02-13T20:33:59.046Z,85.78
2023-02-13T20:36:30.213Z,86.07
2023-02-13T20:39:00.217Z,86.30
2023-02-13T20:41:30.797Z,86.13
2023-02-13T20:43:59.878Z,86.35
2023-02-13T20:46:28.133Z,85.72
2023-02-13T20:48:55.897Z,86.81
2023-02-13T20:51:23.646Z,87.14
2023-02-13T20:53:52.711Z,85.71
2023-02-13T20:56:22.187Z,86.39
2023-02-13T20:58:52.185Z,86.80
2023-02-13T21:01:22.451Z,87.11
2023-02-13T21:03:53.770Z,86.82
2023-02-13T21:06:22.410Z,86.66
2023-02-13T21:08:51.823Z,86.59
2023-02-13T21:11:20.366Z,87.28
2023-02-13T21:13:48.702Z,87.12
2023-02-13T21:16:19.084Z,87.54
2023-02-13T21:18:49.215Z,86.81
2023-02-13T21:21:18.306Z,86.86
2023-02-13T21:23:46.457Z,86.94
2023-02-13T21:26:17.580Z,87.59
2023-02-13T21:28:47.320Z,86.75
2023-02-13T21:31:19.260Z,87.70
2023-02-13T21:33:47.162Z,87.49
2023-02-13T21:36:14.875Z,87.85
2023-02-13T21:38:43.008Z,87.03
2023-02-13T21:41:12.876Z,88.03
2023-02-13T21:43:46.472Z,88.52
2023-02-13T21:46:15.907Z,88.57
2023-02-13T21:48:44.138Z,89.38
2023-02-13T21:51:14.034Z,89.81
2023-02-13T21:53:41.963Z,89.80
2023-02-13T21:56:12.802Z,90.25
2023-02-13T21:58:43.465Z,90.52
2023-02-13T22:01:23.915Z,89.77
2023-02-13T22:03:53.413Z,89.82
2023-02-13T22:06:21.933Z,90.66
2023-02-13T22:08:49.782Z,90.46
2023-02-13T22:11:18.652Z,90.55
2023-02-13T22:13:47.778Z,90.11
2023-02-13T22:16:16.558Z,90.57
2023-02-13T22:18:46.162Z,90.58
2023-02-13T22:21:16.238Z,89.97
2023-02-13T22:23:45.738Z,90.93
2023-02-13T22:26:17.754Z,91.10
2023-02-13T22:28:47.712Z,90.45
2023-02-13T22:31:16.909Z,90.83
2023-02-13T22:33:47.633Z,90.99
2023-02-13T22:36:16.751Z,91.30
2023-02-13T22:38:44.900Z,91.78
2023-02-13T22:41:15.389Z,92.32
2023-02-13T22:43:43.543Z,92.67
2023-02-13T22:46:15.516Z,92.70
2023-02-13T22:48:46.036Z,92.62
2023-02-13T22:51:16.128Z,93.66
2023-02-13T22:53:44.696Z,94.03
2023-02-13T22:56:13.311Z,93.48
2023-02-13T22:58:41.296Z,93.68
2023-02-13T23:01:15.260Z,93.92
2023-02-13T23:03:43.350Z,93.98
2023-02-13T23:06:12.977Z,93.94
2023-02-13T23:08:40.903Z,94.13
2023-02-13T23:11:27.764Z,94.22
2023-02-13T23:13:55.668Z,94.05
2023-02-13T23:16:24.737Z,93.99
2023-02-13T23:18:52.858Z,94.09
2023-02-13T23:21:21.195Z,94.39
2023-02-13T23:23:49.162Z,94.29
2023-02-13T23:26:17.039Z,94.52
2023-02-13T23:28:44.901Z,94.13
2023-02-13T23:31:12.773Z,94.91
2023-02-13T23:33:41.939Z,94.66
2023-02-13T23:36:09.836Z,95.58
2023-02-13T23:38:37.545Z,95.69
2023-02-13T23:41:09.082Z,95.19
2023-02-13T23:43:37.436Z,95.37
2023-02-13T23:46:06.318Z,95.83
2023-02-13T23:48:34.931Z,95.89
2023-02-13T23:51:04.112Z,96.41
2023-02-13T23:53:31.928Z,96.43
2023-02-13T23:55:59.662Z,96.31
2023-02-13T23:58:27.418Z,96.85
